This is the latest recevied weather packets stored in our database for station/object N8AMF. If no packets are shown the sender has not sent any weather packets the latest 1 day(s).
| Time | Temp. | Humidity | Pressure | Rain* | Wind** | Luminosity | Snow |
|---|---|---|---|---|---|---|---|
| 1836274638 | 16.11° C | 96% | 1020 hPa | 0 mm | 0 m/s | 0 W/m² | - |
| 1836274492 | 16.11° C | 96% | 1019.9 hPa | 0 mm | 0 m/s | 0 W/m² | - |
| 1836274336 | 16.11° C | 96% | 1020 hPa | 0 mm | 0 m/s | 0 W/m² | - |
| 1836274190 | 16.11° C | 96% | 1019.9 hPa | 0 mm | 0 m/s | 0 W/m² | - |
| 1836274035 | 16.11° C | 96% | 1019.8 hPa | 0 mm | 0 m/s | 0 W/m² | - |
| 1778049078 | 7.78° C | 99% | 1007.4 hPa | 1.27 mm | 0 m/s | 0 W/m² | - |
| 1778048777 | 7.78° C | 99% | 1007.1 hPa | 1.27 mm | 0 m/s | 0 W/m² | - |
| 1778048474 | 7.78° C | 99% | 1007 hPa | 0.51 mm | 0 m/s | 0 W/m² | - |
| 1778048169 | 7.78° C | 99% | 1007.5 hPa | 1.27 mm | 0 m/s | 0 W/m² | - |
| 1778047868 | 7.78° C | 99% | 1007.7 hPa | 0.51 mm | 0 m/s | 0 W/m² | - |
| 1778047574 | 7.78° C | 99% | 1007.8 hPa | 0 mm | 0 m/s | 0 W/m² | - |
| 1778047262 | 7.78° C | 99% | 1007.6 hPa | 0.51 mm | 0 m/s | 0 W/m² | - |
| 1778046960 | 7.78° C | 99% | 1007.7 hPa | 0.51 mm | 0 m/s | 0 W/m² | - |
| 1778046656 | 7.78° C | 99% | 1007.8 hPa | 0 mm | 0 m/s | 0 W/m² | - |
| 1778046353 | 7.78° C | 99% | 1008 hPa | 0.51 mm | 0.45 m/s, 176° | 0 W/m² | - |
| 1778046049 | 7.78° C | 99% | 1007.7 hPa | 0.51 mm | 0 m/s | 0 W/m² | - |
| 1778045747 | 7.78° C | 99% | 1007.7 hPa | 0.51 mm | 0 m/s | 0 W/m² | - |
| 1778045446 | 7.78° C | 99% | 1007.6 hPa | 0.51 mm | 0 m/s | 0 W/m² | - |
| 1778045143 | 7.78° C | 99% | 1007.6 hPa | 0.51 mm | 0 m/s | 0 W/m² | - |
| 1778044841 | 7.78° C | 99% | 1007.7 hPa | 1.27 mm | 0.45 m/s, 68° | 0 W/m² | - |
| 1778044538 | 7.78° C | 99% | 1007.7 hPa | 1.27 mm | 0 m/s | 0 W/m² | - |
| 1778044234 | 7.78° C | 99% | 1007.6 hPa | 1.27 mm | 0 m/s | 0 W/m² | - |
| 1778043932 | 7.78° C | 99% | 1007.7 hPa | 0.51 mm | 0 m/s | 0 W/m² | - |
| 1778043630 | 7.78° C | 99% | 1007.7 hPa | 0.51 mm | 0 m/s | 0 W/m² | - |
| 1778043326 | 7.78° C | 99% | 1007.8 hPa | 1.27 mm | 0 m/s | 0 W/m² | - |
* Rain latest hour (hover to see other rain measurements)
** Current wind speed in m/s (hover to see current wind gust speed)